createdAt,value
2023-03-15T00:00:13.158Z,98570.91
2023-03-15T00:01:21.001Z,98550.72
2023-03-15T00:02:22.914Z,98568.03
2023-03-15T00:03:24.897Z,98572.56
2023-03-15T00:04:27.960Z,98565.59
2023-03-15T00:05:29.986Z,98570.91
2023-03-15T00:06:36.000Z,98569.25
2023-03-15T00:07:38.043Z,98572.56
2023-03-15T00:08:39.897Z,98573.56
2023-03-15T00:09:41.660Z,98544.47
2023-03-15T00:10:45.462Z,98572.09
2023-03-15T00:11:47.265Z,98579.06
2023-03-15T00:12:49.033Z,98565.50
2023-03-15T00:13:51.664Z,98574.97
2023-03-15T00:14:53.597Z,98570.66
2023-03-15T00:15:59.008Z,98575.97
2023-03-15T00:17:00.859Z,98567.97
2023-03-15T00:18:03.310Z,98573.31
2023-03-15T00:19:05.141Z,98559.91
2023-03-15T00:20:07.977Z,98568.34
2023-03-15T00:21:09.754Z,98565.50
2023-03-15T00:22:11.556Z,98564.69
2023-03-15T00:23:14.428Z,98561.38
2023-03-15T00:24:16.209Z,98554.09
2023-03-15T00:25:18.109Z,98572.03
2023-03-15T00:26:19.992Z,98572.03
2023-03-15T00:27:21.836Z,98572.03
2023-03-15T00:28:23.616Z,98574.88
2023-03-15T00:29:27.080Z,98573.84
2023-03-15T00:30:28.911Z,98573.03
2023-03-15T00:31:30.983Z,98563.31
2023-03-15T00:32:32.911Z,98565.34
2023-03-15T00:33:35.342Z,98542.38
2023-03-15T00:34:37.174Z,98581.41
2023-03-15T00:35:43.053Z,98586.53
2023-03-15T00:36:45.775Z,98588.38
2023-03-15T00:37:48.128Z,98573.13
2023-03-15T00:38:52.010Z,98584.88
2023-03-15T00:39:55.763Z,98589.19
2023-03-15T00:40:57.695Z,98588.38
2023-03-15T00:41:59.590Z,98589.41
2023-03-15T00:43:01.437Z,98597.41
2023-03-15T00:44:07.141Z,98593.88
2023-03-15T00:45:10.610Z,98590.13
2023-03-15T00:46:13.236Z,98602.72
2023-03-15T00:47:15.153Z,98586.63
2023-03-15T00:48:17.005Z,98596.56
2023-03-15T00:49:18.873Z,98594.91
2023-03-15T00:50:22.992Z,98594.06
2023-03-15T00:51:25.016Z,98580.19
2023-03-15T00:52:27.445Z,98592.41
2023-03-15T00:53:29.233Z,98599.59
2023-03-15T00:54:33.572Z,98590.75
2023-03-15T00:55:35.658Z,98581.22
2023-03-15T00:56:38.665Z,98604.72
2023-03-15T00:57:41.976Z,98601.78
2023-03-15T00:58:44.101Z,98592.78
2023-03-15T00:59:46.597Z,98592.13
2023-03-15T01:00:48.406Z,98592.78
2023-03-15T01:01:51.228Z,98598.09
2023-03-15T01:02:54.488Z,98583.06
2023-03-15T01:03:56.560Z,98604.28
2023-03-15T01:04:59.764Z,98603.44
2023-03-15T01:06:25.627Z,98599.31
2023-03-15T01:07:27.590Z,98593.25
2023-03-15T01:08:29.425Z,98598.94
2023-03-15T01:09:31.706Z,98599.13
2023-03-15T01:10:35.633Z,98599.31
2023-03-15T01:11:37.564Z,98557.16
2023-03-15T01:12:39.517Z,98595.16
2023-03-15T01:13:41.658Z,98597.03
2023-03-15T01:14:43.512Z,98589.19
2023-03-15T01:15:47.768Z,98583.59
2023-03-15T01:16:49.770Z,98598.84
2023-03-15T01:17:51.564Z,98595.75
2023-03-15T01:18:53.979Z,98591.44
2023-03-15T01:19:56.168Z,98590.41
2023-03-15T01:20:58.834Z,98597.75
2023-03-15T01:22:00.715Z,98584.72
2023-03-15T01:23:02.508Z,98593.25
2023-03-15T01:24:04.446Z,98570.22
2023-03-15T01:25:06.818Z,98584.88
2023-03-15T01:26:12.500Z,98597.13
2023-03-15T01:27:14.376Z,98594.25
2023-03-15T01:28:16.842Z,98599.59
2023-03-15T01:29:18.737Z,98599.59
2023-03-15T01:30:20.741Z,98587.53
2023-03-15T01:31:30.334Z,98585.88
2023-03-15T01:32:32.308Z,98601.59
2023-03-15T01:33:34.155Z,98600.78
2023-03-15T01:34:36.756Z,98591.69
2023-03-15T01:35:38.653Z,98605.28
2023-03-15T01:36:40.576Z,98606.28
2023-03-15T01:37:42.363Z,98606.47
2023-03-15T01:38:44.594Z,98598.19
2023-03-15T01:39:49.092Z,98593.06
2023-03-15T01:40:50.870Z,98621.63
2023-03-15T01:41:52.934Z,98596.09
2023-03-15T01:43:04.084Z,98611.97
2023-03-15T01:44:13.952Z,98610.97
2023-03-15T01:45:54.512Z,98607.78
2023-03-15T01:46:57.027Z,98606.56
2023-03-15T01:47:59.539Z,98609.78
2023-03-15T01:49:23.574Z,98607.66
2023-03-15T01:50:25.665Z,98603.63
2023-03-15T01:51:50.710Z,98600.31
2023-03-15T01:52:53.602Z,98604.47
2023-03-15T01:54:10.500Z,98606.66
2023-03-15T01:55:19.560Z,98602.97
2023-03-15T01:56:42.043Z,98603.63
2023-03-15T01:57:57.405Z,98606.66
2023-03-15T01:59:05.321Z,98610.13
2023-03-15T02:00:12.199Z,98611.34
2023-03-15T02:01:45.662Z,98611.78
2023-03-15T02:02:55.828Z,98605.38
2023-03-15T02:04:07.912Z,98612.16
2023-03-15T02:05:20.546Z,98608.03
2023-03-15T02:06:24.105Z,98614.16
2023-03-15T02:07:34.676Z,98575.50
2023-03-15T02:08:43.748Z,98612.25
2023-03-15T02:10:11.020Z,98618.31
2023-03-15T02:11:14.788Z,98611.34
2023-03-15T02:12:18.895Z,98620.72
2023-03-15T02:13:25.259Z,98612.44
2023-03-15T02:14:29.555Z,98628.06
2023-03-15T02:15:33.124Z,98613.19
2023-03-15T02:16:39.017Z,98624.75
2023-03-15T02:17:46.369Z,98618.78
2023-03-15T02:18:48.505Z,98626.75
2023-03-15T02:20:13.502Z,98626.75
2023-03-15T02:21:20.309Z,98631.34
2023-03-15T02:22:31.062Z,98626.41
2023-03-15T02:23:33.033Z,98626.41
2023-03-15T02:24:53.356Z,98622.44
2023-03-15T02:26:14.442Z,98634.03
2023-03-15T02:27:26.076Z,98627.22
2023-03-15T02:28:28.531Z,98627.41
2023-03-15T02:29:30.909Z,98622.97
2023-03-15T02:30:32.903Z,98621.69
2023-03-15T02:31:38.124Z,98610.09
2023-03-15T02:32:41.342Z,98630.81
2023-03-15T02:33:51.252Z,98636.94
2023-03-15T02:34:53.246Z,98632.47
2023-03-15T02:35:56.260Z,98620.38
2023-03-15T02:36:58.119Z,98638.16
2023-03-15T02:38:02.732Z,98639.78
2023-03-15T02:39:15.098Z,98631.50
2023-03-15T02:40:21.358Z,98636.28
2023-03-15T02:41:36.685Z,98631.63
2023-03-15T02:42:38.572Z,98632.47
2023-03-15T02:43:41.867Z,98633.16
2023-03-15T02:44:46.002Z,98640.97
2023-03-15T02:45:49.579Z,98651.47
2023-03-15T02:46:55.033Z,98631.03
2023-03-15T02:47:57.016Z,98637.34
2023-03-15T02:49:00.361Z,98634.22
2023-03-15T02:50:03.125Z,98649.13
2023-03-15T02:51:05.258Z,98643.97
2023-03-15T02:52:07.545Z,98646.63
2023-03-15T02:53:09.382Z,98652.78
2023-03-15T02:54:11.224Z,98651.94
2023-03-15T02:55:13.025Z,98652.78
2023-03-15T02:56:15.435Z,98649.00
2023-03-15T02:57:19.275Z,98644.03
2023-03-15T02:58:21.932Z,98654.78
2023-03-15T02:59:23.838Z,98643.19
2023-03-15T03:00:26.282Z,98655.78
2023-03-15T03:01:28.096Z,98657.63
2023-03-15T03:02:29.946Z,98652.47
2023-03-15T03:03:31.769Z,98649.38
2023-03-15T03:04:35.967Z,98659.94
2023-03-15T03:05:37.867Z,98661.75
2023-03-15T03:06:40.048Z,98656.44
2023-03-15T03:07:43.060Z,98654.34
2023-03-15T03:08:47.338Z,98654.78
2023-03-15T03:09:52.006Z,98658.44
2023-03-15T03:10:55.721Z,98660.09
2023-03-15T03:11:57.667Z,98661.75
2023-03-15T03:12:59.760Z,98661.75
2023-03-15T03:14:14.169Z,98660.94
2023-03-15T03:15:16.912Z,98666.75
2023-03-15T03:16:18.891Z,98667.75
2023-03-15T03:17:20.805Z,98649.53
2023-03-15T03:18:22.661Z,98667.94
2023-03-15T03:19:25.846Z,98668.78
2023-03-15T03:20:28.206Z,98665.44
2023-03-15T03:21:31.202Z,98664.63
2023-03-15T03:22:33.891Z,98655.69
2023-03-15T03:23:36.695Z,98673.25
2023-03-15T03:24:39.516Z,98657.53
2023-03-15T03:25:41.395Z,98673.25
2023-03-15T03:26:46.269Z,98664.34
2023-03-15T03:27:49.709Z,98676.75
2023-03-15T03:28:51.538Z,98677.72
2023-03-15T03:29:53.326Z,98663.69
2023-03-15T03:30:56.227Z,98674.63
2023-03-15T03:31:58.107Z,98674.63
2023-03-15T03:33:00.001Z,98667.81
2023-03-15T03:34:02.084Z,98660.38
2023-03-15T03:35:05.403Z,98670.38
2023-03-15T03:36:08.452Z,98671.13
2023-03-15T03:37:11.160Z,98683.41
2023-03-15T03:38:28.667Z,98677.59
2023-03-15T03:39:32.892Z,98678.56
2023-03-15T03:40:36.901Z,98676.91
2023-03-15T03:41:39.760Z,98679.75
2023-03-15T03:42:42.499Z,98678.94
2023-03-15T03:43:44.382Z,98642.72
2023-03-15T03:44:46.476Z,98680.09
2023-03-15T03:45:48.625Z,98680.47
2023-03-15T03:46:52.238Z,98682.97
2023-03-15T03:47:54.070Z,98687.44
2023-03-15T03:48:56.170Z,98687.44
2023-03-15T03:49:58.066Z,98687.44
2023-03-15T03:51:00.162Z,98671.78
2023-03-15T03:52:02.376Z,98697.28
2023-03-15T03:53:04.243Z,98680.19
2023-03-15T03:54:09.334Z,98682.84
2023-03-15T03:55:15.164Z,98691.13
2023-03-15T03:56:17.990Z,98689.81
2023-03-15T03:57:19.827Z,98697.28
2023-03-15T03:58:21.830Z,98706.28
2023-03-15T03:59:28.899Z,98693.50
2023-03-15T04:00:38.022Z,98702.59
2023-03-15T04:01:42.259Z,98703.41
2023-03-15T04:02:46.543Z,98704.41
2023-03-15T04:03:51.288Z,98705.44
2023-03-15T04:04:55.364Z,98702.47
2023-03-15T04:05:58.824Z,98702.13
2023-03-15T04:07:02.281Z,98704.50
2023-03-15T04:08:09.432Z,98709.09
2023-03-15T04:09:15.653Z,98711.75
2023-03-15T04:10:19.796Z,98705.50
2023-03-15T04:11:26.881Z,98704.78
2023-03-15T04:12:35.896Z,98708.28
2023-03-15T04:13:37.816Z,98702.00
2023-03-15T04:14:40.199Z,98711.09
2023-03-15T04:15:44.898Z,98704.97
2023-03-15T04:16:46.816Z,98708.81
2023-03-15T04:17:58.571Z,98705.97
2023-03-15T04:19:07.970Z,98711.09
2023-03-15T04:20:13.063Z,98708.66
2023-03-15T04:21:23.184Z,98714.78
2023-03-15T04:22:29.264Z,98713.97
2023-03-15T04:23:41.054Z,98712.97
2023-03-15T04:25:09.307Z,98717.72
2023-03-15T04:26:39.829Z,98710.75
2023-03-15T04:28:00.015Z,98708.94
2023-03-15T04:29:23.352Z,98719.38
2023-03-15T04:30:49.429Z,98716.44
2023-03-15T04:32:14.396Z,98719.38
2023-03-15T04:33:26.230Z,98708.16
2023-03-15T04:34:51.436Z,98720.59
2023-03-15T04:36:19.032Z,98718.44
2023-03-15T04:37:42.525Z,98732.88
2023-03-15T04:39:07.530Z,98731.03
2023-03-15T04:40:38.596Z,98731.22
2023-03-15T04:42:03.528Z,98726.72
2023-03-15T04:43:41.134Z,98732.88
2023-03-15T04:44:56.933Z,98728.72
2023-03-15T04:46:17.300Z,98736.72
2023-03-15T04:47:39.393Z,98721.09
2023-03-15T04:49:06.141Z,98737.72
2023-03-15T04:50:26.234Z,98735.25
2023-03-15T04:51:50.856Z,98726.13
2023-03-15T04:53:24.870Z,98716.31
2023-03-15T04:54:39.340Z,98737.28
2023-03-15T04:56:07.341Z,98742.41
2023-03-15T04:57:16.734Z,98741.75
2023-03-15T04:58:26.264Z,98742.09
2023-03-15T04:59:37.518Z,98741.63
2023-03-15T05:01:12.544Z,98742.59
2023-03-15T05:02:42.697Z,98752.03
2023-03-15T05:04:01.979Z,98750.56
2023-03-15T05:05:23.693Z,98746.44
2023-03-15T05:06:36.711Z,98745.78
2023-03-15T05:07:57.101Z,98751.91
2023-03-15T05:08:58.977Z,98746.28
2023-03-15T05:10:16.140Z,98744.47
2023-03-15T05:11:21.003Z,98743.81
2023-03-15T05:12:36.673Z,98747.13
2023-03-15T05:13:57.115Z,98759.44
2023-03-15T05:15:13.423Z,98756.94
2023-03-15T05:16:39.171Z,98753.75
2023-03-15T05:18:01.277Z,98746.84
2023-03-15T05:19:35.689Z,98760.75
2023-03-15T05:20:57.804Z,98768.72
2023-03-15T05:22:19.866Z,98766.56
2023-03-15T05:23:41.192Z,98772.38
2023-03-15T05:25:05.829Z,98779.38
2023-03-15T05:26:25.401Z,98768.06
2023-03-15T05:27:56.303Z,98777.72
2023-03-15T05:29:22.734Z,98776.72
2023-03-15T05:30:34.221Z,98761.16
2023-03-15T05:31:42.834Z,98779.88
2023-03-15T05:33:20.991Z,98772.38
2023-03-15T05:34:49.082Z,98773.19
2023-03-15T05:36:07.761Z,98776.06
2023-03-15T05:37:25.892Z,98783.38
2023-03-15T05:38:47.921Z,98783.38
2023-03-15T05:40:09.525Z,98784.38
2023-03-15T05:41:31.573Z,98786.22
2023-03-15T05:42:52.521Z,98786.22
2023-03-15T05:44:09.846Z,98799.72
2023-03-15T05:45:50.608Z,98792.03
2023-03-15T05:47:22.966Z,98805.31
2023-03-15T05:48:40.182Z,98804.69
2023-03-15T05:49:53.334Z,98810.34
2023-03-15T05:51:08.655Z,98807.03
2023-03-15T05:52:28.848Z,98806.84
2023-03-15T05:53:46.442Z,98805.72
2023-03-15T05:55:17.824Z,98800.41
2023-03-15T05:56:38.190Z,98743.09
2023-03-15T05:58:07.714Z,98804.06
2023-03-15T05:59:19.138Z,98808.09
2023-03-15T06:00:39.596Z,98823.81
2023-03-15T06:01:50.664Z,98821.34
2023-03-15T06:03:01.035Z,98831.34
2023-03-15T06:04:36.498Z,98825.47
2023-03-15T06:05:38.977Z,98828.69
2023-03-15T06:06:44.872Z,98816.41
2023-03-15T06:07:47.408Z,98833.69
2023-03-15T06:08:50.655Z,98835.00
2023-03-15T06:09:52.513Z,98843.69
2023-03-15T06:10:54.461Z,98832.91
2023-03-15T06:11:56.495Z,98837.34
2023-03-15T06:12:58.381Z,98844.34
2023-03-15T06:14:00.261Z,98843.13
2023-03-15T06:15:24.387Z,98837.66
2023-03-15T06:16:27.612Z,98854.59
2023-03-15T06:17:32.409Z,98856.25
2023-03-15T06:18:34.278Z,98862.22
2023-03-15T06:19:37.832Z,98858.34
2023-03-15T06:20:41.255Z,98860.03
2023-03-15T06:21:47.616Z,98862.16
2023-03-15T06:22:59.749Z,98853.38
2023-03-15T06:24:09.292Z,98850.16
2023-03-15T06:25:11.582Z,98859.94
2023-03-15T06:26:15.355Z,98860.59
2023-03-15T06:27:21.951Z,98868.28
2023-03-15T06:28:25.028Z,98873.06
2023-03-15T06:29:31.448Z,98860.13
2023-03-15T06:30:35.233Z,98875.03
2023-03-15T06:31:37.200Z,98874.69
2023-03-15T06:32:42.917Z,98866.84
2023-03-15T06:33:44.895Z,98870.47
2023-03-15T06:34:46.776Z,98873.63
2023-03-15T06:35:50.696Z,98882.25
2023-03-15T06:36:56.038Z,98880.91
2023-03-15T06:37:57.956Z,98877.88
2023-03-15T06:38:59.884Z,98886.50
2023-03-15T06:40:06.371Z,98892.34
2023-03-15T06:41:08.745Z,98883.78
2023-03-15T06:42:13.832Z,98887.94
2023-03-15T06:43:19.581Z,98893.94
2023-03-15T06:44:21.893Z,98901.56
2023-03-15T06:45:31.739Z,98905.72
2023-03-15T06:46:34.025Z,98890.25
2023-03-15T06:47:35.925Z,98907.03
2023-03-15T06:48:39.127Z,98909.50
2023-03-15T06:49:42.272Z,98913.66
2023-03-15T06:50:47.682Z,98903.81
2023-03-15T06:51:50.714Z,98917.78
2023-03-15T06:52:52.547Z,98916.59
2023-03-15T06:53:54.845Z,98912.94
2023-03-15T06:54:57.088Z,98923.22
2023-03-15T06:55:59.097Z,98900.50
2023-03-15T06:57:00.888Z,98921.22
2023-03-15T06:58:02.816Z,98924.72
2023-03-15T06:59:05.276Z,98925.38
2023-03-15T07:00:11.317Z,98909.25
2023-03-15T07:01:14.506Z,98924.16
2023-03-15T07:02:18.547Z,98923.16
2023-03-15T07:03:22.372Z,98926.47
2023-03-15T07:04:24.246Z,98919.41
2023-03-15T07:05:26.077Z,98938.78
2023-03-15T07:06:28.402Z,98931.44
2023-03-15T07:07:30.551Z,98938.63
2023-03-15T07:08:32.692Z,98937.44
2023-03-15T07:09:34.445Z,98939.94
2023-03-15T07:10:36.641Z,98946.06
2023-03-15T07:11:38.490Z,98934.59
2023-03-15T07:12:40.260Z,98945.06
2023-03-15T07:13:42.048Z,98946.75
2023-03-15T07:14:43.834Z,98945.06
2023-03-15T07:15:47.788Z,98941.59
2023-03-15T07:16:49.602Z,98945.25
2023-03-15T07:17:51.487Z,98929.16
2023-03-15T07:18:55.587Z,98949.72
2023-03-15T07:19:57.360Z,98955.03
2023-03-15T07:21:00.979Z,98940.75
2023-03-15T07:22:02.769Z,98962.69
2023-03-15T07:23:05.071Z,98951.09
2023-03-15T07:24:07.048Z,98960.03
2023-03-15T07:25:09.691Z,98945.75
2023-03-15T07:26:11.604Z,98968.66
2023-03-15T07:27:15.712Z,98962.31
2023-03-15T07:28:19.014Z,98968.47
2023-03-15T07:29:20.868Z,98965.00
2023-03-15T07:30:22.692Z,98952.38
2023-03-15T07:31:24.592Z,98959.00
2023-03-15T07:32:26.453Z,98969.31
2023-03-15T07:33:30.161Z,98964.50
2023-03-15T07:34:32.020Z,98977.97
2023-03-15T07:35:33.852Z,98971.69
2023-03-15T07:36:35.659Z,98979.63
2023-03-15T07:37:38.513Z,98981.28
2023-03-15T07:38:43.453Z,98977.75
2023-03-15T07:39:45.248Z,98979.31
2023-03-15T07:40:47.043Z,98983.78
2023-03-15T07:41:48.999Z,98989.97
2023-03-15T07:42:57.816Z,98991.63
2023-03-15T07:43:59.826Z,98988.31
2023-03-15T07:45:01.832Z,98997.75
2023-03-15T07:46:03.781Z,98992.44
2023-03-15T07:47:05.700Z,98991.63
2023-03-15T07:48:07.564Z,98997.75
2023-03-15T07:49:09.477Z,98988.75
2023-03-15T07:50:13.231Z,98987.78
2023-03-15T07:51:16.326Z,99008.09
2023-03-15T07:52:18.273Z,99008.91
2023-03-15T07:53:20.356Z,99011.59
2023-03-15T07:54:23.290Z,99017.13
2023-03-15T07:55:25.707Z,99016.09
2023-03-15T07:56:27.578Z,99002.97
2023-03-15T07:57:29.423Z,99026.56
2023-03-15T07:58:31.762Z,99021.75
2023-03-15T07:59:33.862Z,99024.91
2023-03-15T08:00:35.709Z,99027.59
2023-03-15T08:01:37.609Z,99040.91
2023-03-15T08:02:40.464Z,99033.75
2023-03-15T08:03:42.400Z,99042.56
2023-03-15T08:04:44.863Z,99038.91
2023-03-15T08:05:46.817Z,99042.41
2023-03-15T08:06:48.625Z,99030.09
2023-03-15T08:07:50.899Z,99024.31
2023-03-15T08:08:52.798Z,99046.91
2023-03-15T08:09:54.573Z,99042.56
2023-03-15T08:10:57.000Z,99042.56
2023-03-15T08:11:59.005Z,99044.25
2023-03-15T08:13:00.898Z,99056.28
2023-03-15T08:14:02.692Z,99048.44
2023-03-15T08:15:04.909Z,99061.09
2023-03-15T08:16:07.061Z,99066.41
2023-03-15T08:17:13.131Z,99067.25
2023-03-15T08:18:15.112Z,99049.44
2023-03-15T08:19:17.054Z,99055.63
2023-03-15T08:20:19.139Z,99063.09
2023-03-15T08:21:21.693Z,99064.44
2023-03-15T08:22:24.108Z,99072.44
2023-03-15T08:23:26.410Z,99071.56
2023-03-15T08:24:28.284Z,99078.75
2023-03-15T08:25:31.004Z,99082.22
2023-03-15T08:26:32.940Z,99076.09
2023-03-15T08:27:34.814Z,99076.59
2023-03-15T08:28:36.668Z,99079.56
2023-03-15T08:29:38.566Z,99077.91
2023-03-15T08:30:40.724Z,99079.56
2023-03-15T08:31:42.834Z,99091.09
2023-03-15T08:32:46.875Z,99093.91
2023-03-15T08:33:48.683Z,99100.91
2023-03-15T08:34:53.182Z,99095.75
2023-03-15T08:35:55.212Z,99105.44
2023-03-15T08:36:57.222Z,99108.09
2023-03-15T08:37:59.027Z,99106.25
2023-03-15T08:39:00.821Z,99112.59
2023-03-15T08:40:08.279Z,99108.25
2023-03-15T08:41:10.109Z,99108.25
2023-03-15T08:42:12.117Z,99106.25
2023-03-15T08:43:13.981Z,99120.59
2023-03-15T08:44:15.865Z,99130.25
2023-03-15T08:45:17.916Z,99125.91
2023-03-15T08:46:22.106Z,99118.94
2023-03-15T08:47:24.124Z,99124.09
2023-03-15T08:48:25.913Z,99129.44
2023-03-15T08:49:27.696Z,99129.44
2023-03-15T08:50:31.761Z,99137.44
2023-03-15T08:51:33.766Z,99139.25
2023-03-15T08:52:35.649Z,99140.63
2023-03-15T08:53:38.436Z,99145.44
2023-03-15T08:54:40.654Z,99148.91
2023-03-15T08:55:42.529Z,99148.09
2023-03-15T08:56:44.586Z,99143.94
2023-03-15T08:57:46.552Z,99152.59
2023-03-15T08:58:48.573Z,99152.59
2023-03-15T08:59:50.617Z,99158.78
2023-03-15T09:00:52.852Z,99161.59
2023-03-15T09:01:54.617Z,99163.25
2023-03-15T09:02:56.605Z,99177.44
2023-03-15T09:03:58.406Z,99172.13
2023-03-15T09:05:00.239Z,99146.66
2023-03-15T09:06:02.044Z,99173.94
2023-03-15T09:07:03.826Z,99169.59
2023-03-15T09:08:05.652Z,99161.47
2023-03-15T09:09:07.441Z,99173.94
2023-03-15T09:10:13.288Z,99167.28
2023-03-15T09:11:15.124Z,99174.78
2023-03-15T09:12:17.515Z,99179.63
2023-03-15T09:13:19.269Z,99179.25
2023-03-15T09:14:21.120Z,99184.59
2023-03-15T09:15:23.127Z,99188.28
2023-03-15T09:16:25.066Z,99188.28
2023-03-15T09:17:26.970Z,99190.94
2023-03-15T09:18:28.778Z,99201.59
2023-03-15T09:19:32.393Z,99201.59
2023-03-15T09:20:34.561Z,99189.28
2023-03-15T09:21:36.365Z,99209.63
2023-03-15T09:22:39.789Z,99206.94
2023-03-15T09:23:41.783Z,99211.63
2023-03-15T09:24:43.633Z,99209.81
2023-03-15T09:25:45.683Z,99219.47
2023-03-15T09:26:47.470Z,99222.94
2023-03-15T09:27:49.610Z,99207.97
2023-03-15T09:28:51.587Z,99230.94
2023-03-15T09:29:53.432Z,99229.28
2023-03-15T09:30:55.639Z,99229.47
2023-03-15T09:31:57.476Z,99236.94
2023-03-15T09:32:59.420Z,99233.31
2023-03-15T09:34:01.570Z,99235.28
2023-03-15T09:35:05.210Z,99240.63
2023-03-15T09:36:07.846Z,99244.94
2023-03-15T09:37:10.162Z,99251.13
2023-03-15T09:38:11.988Z,99253.94
2023-03-15T09:39:13.736Z,99250.63
2023-03-15T09:40:27.492Z,99258.94
2023-03-15T09:41:45.878Z,99262.44
2023-03-15T09:43:08.971Z,99257.22
2023-03-15T09:44:22.475Z,99261.09
2023-03-15T09:45:50.560Z,99250.59
2023-03-15T09:47:23.246Z,99264.88
2023-03-15T09:48:32.411Z,99272.91
2023-03-15T09:49:44.541Z,99268.91
2023-03-15T09:50:54.693Z,99269.25
2023-03-15T09:52:13.539Z,99267.44
2023-03-15T09:53:21.619Z,99276.25
2023-03-15T09:54:32.265Z,99272.13
2023-03-15T09:55:34.062Z,99277.91
2023-03-15T09:56:45.761Z,99278.63
2023-03-15T09:57:53.429Z,99279.94
2023-03-15T09:58:59.861Z,99287.78
2023-03-15T10:00:07.203Z,99283.25
2023-03-15T10:01:14.616Z,99288.59
2023-03-15T10:02:24.882Z,99287.78
2023-03-15T10:03:38.740Z,99292.75
2023-03-15T10:04:44.825Z,99287.13
2023-03-15T10:05:55.968Z,99295.25
2023-03-15T10:07:01.130Z,99299.41
2023-03-15T10:08:03.341Z,99294.91
2023-03-15T10:09:22.296Z,99288.25
2023-03-15T10:10:39.019Z,99310.41
2023-03-15T10:11:55.709Z,99304.06
2023-03-15T10:13:22.182Z,99305.38
2023-03-15T10:14:46.992Z,99319.72
2023-03-15T10:16:17.976Z,99307.03
2023-03-15T10:17:58.410Z,99312.31
2023-03-15T10:19:31.838Z,99319.53
2023-03-15T10:20:41.352Z,99324.56
2023-03-15T10:22:13.620Z,99310.41
2023-03-15T10:23:53.087Z,99319.88
2023-03-15T10:25:11.420Z,99325.22
2023-03-15T10:26:19.101Z,99316.53
2023-03-15T10:27:36.494Z,99316.88
2023-03-15T10:28:39.813Z,99333.25
2023-03-15T10:29:42.548Z,99330.59
2023-03-15T10:30:49.253Z,99323.94
2023-03-15T10:31:54.449Z,99332.41
2023-03-15T10:33:05.396Z,99343.06
2023-03-15T10:34:09.980Z,99350.94
2023-03-15T10:35:17.633Z,99340.25
2023-03-15T10:36:24.929Z,99342.59
2023-03-15T10:37:27.113Z,99350.72
2023-03-15T10:38:29.157Z,99365.94
2023-03-15T10:39:31.884Z,99364.06
2023-03-15T10:40:40.816Z,99361.59
2023-03-15T10:41:45.438Z,99369.25
2023-03-15T10:42:47.522Z,99364.94
2023-03-15T10:44:04.824Z,99361.41
2023-03-15T10:45:28.297Z,99358.25
2023-03-15T10:46:30.180Z,99365.72
2023-03-15T10:47:32.013Z,99368.56
2023-03-15T10:48:39.765Z,99366.25
2023-03-15T10:49:41.955Z,99371.59
2023-03-15T10:50:43.787Z,99367.28
2023-03-15T10:51:48.100Z,99373.59
2023-03-15T10:52:51.420Z,99368.94
2023-03-15T10:54:06.962Z,99378.94
2023-03-15T10:55:16.513Z,99383.72
2023-03-15T10:56:25.840Z,99385.59
2023-03-15T10:57:33.522Z,99385.09
2023-03-15T10:58:50.879Z,99395.06
2023-03-15T11:00:06.952Z,99361.59
2023-03-15T11:01:35.905Z,99397.06
2023-03-15T11:02:37.926Z,99395.91
2023-03-15T11:03:41.776Z,99389.25
2023-03-15T11:04:49.252Z,99403.06
2023-03-15T11:05:53.647Z,99408.41
2023-03-15T11:06:58.521Z,99410.25
2023-03-15T11:08:01.533Z,99419.28
2023-03-15T11:09:25.448Z,99413.59
2023-03-15T11:10:33.431Z,99420.59
2023-03-15T11:11:53.668Z,99429.91
2023-03-15T11:13:13.634Z,99425.44
2023-03-15T11:14:15.415Z,99427.25
2023-03-15T11:15:19.492Z,99423.25
2023-03-15T11:16:22.104Z,99434.94
2023-03-15T11:17:30.755Z,99428.09
2023-03-15T11:18:57.545Z,99430.25
2023-03-15T11:20:30.620Z,99437.44
2023-03-15T11:21:35.728Z,99441.75
2023-03-15T11:22:37.502Z,99431.44
2023-03-15T11:23:44.058Z,99435.44
2023-03-15T11:24:45.957Z,99441.59
2023-03-15T11:25:48.292Z,99432.44
2023-03-15T11:26:53.571Z,99444.47
2023-03-15T11:27:55.360Z,99449.81
2023-03-15T11:29:01.153Z,99447.28
2023-03-15T11:30:04.460Z,99450.63
2023-03-15T11:31:06.600Z,99443.44
2023-03-15T11:32:18.618Z,99445.28
2023-03-15T11:33:52.429Z,99452.44
2023-03-15T11:35:07.005Z,99450.94
2023-03-15T11:36:15.967Z,99449.94
2023-03-15T11:37:41.427Z,99457.91
2023-03-15T11:38:45.097Z,99465.25
2023-03-15T11:40:08.848Z,99470.13
2023-03-15T11:41:29.984Z,99466.09
2023-03-15T11:42:38.221Z,99466.44
2023-03-15T11:44:16.993Z,99468.59
2023-03-15T11:45:39.664Z,99470.75
2023-03-15T11:47:24.970Z,99474.94
2023-03-15T11:48:50.469Z,99475.91
2023-03-15T11:49:57.837Z,99479.91
2023-03-15T11:51:01.339Z,99483.78
2023-03-15T11:52:04.260Z,99482.28
2023-03-15T11:53:07.101Z,99480.81
2023-03-15T11:54:17.581Z,99480.94
2023-03-15T11:55:28.145Z,99487.81
2023-03-15T11:56:52.113Z,99481.94
2023-03-15T11:57:55.580Z,99488.28
2023-03-15T11:59:08.667Z,99485.78
2023-03-15T12:00:44.946Z,99478.28
2023-03-15T12:02:09.763Z,99499.94
2023-03-15T12:03:34.559Z,99499.94
2023-03-15T12:04:36.459Z,99458.47
2023-03-15T12:05:51.008Z,99502.28
2023-03-15T12:06:57.433Z,99512.16
2023-03-15T12:08:17.018Z,99511.50
2023-03-15T12:09:33.776Z,99515.47
2023-03-15T12:10:46.588Z,99514.63
2023-03-15T12:11:48.456Z,99512.97
2023-03-15T12:12:59.564Z,99518.66
2023-03-15T12:14:01.696Z,99514.97
2023-03-15T12:15:35.395Z,99524.97
2023-03-15T12:16:42.791Z,99517.66
2023-03-15T12:17:57.225Z,99524.50
2023-03-15T12:19:02.065Z,99513.00
2023-03-15T12:20:14.592Z,99527.50
2023-03-15T12:21:21.261Z,99524.00
2023-03-15T12:22:23.299Z,99532.00
2023-03-15T12:23:48.664Z,99533.31
2023-03-15T12:24:50.629Z,99525.19
2023-03-15T12:25:57.207Z,99545.34
2023-03-15T12:27:01.159Z,99548.88
2023-03-15T12:28:18.842Z,99555.22
2023-03-15T12:29:26.948Z,99561.22
2023-03-15T12:30:45.180Z,99547.00
2023-03-15T12:31:52.938Z,99559.03
2023-03-15T12:32:56.431Z,99560.22
2023-03-15T12:34:01.040Z,99565.53
2023-03-15T12:35:17.571Z,99565.53
2023-03-15T12:36:41.137Z,99565.03
2023-03-15T12:37:46.420Z,99557.03
2023-03-15T12:39:01.094Z,99574.22
2023-03-15T12:40:28.503Z,99572.03
2023-03-15T12:41:43.655Z,99570.22
2023-03-15T12:42:52.730Z,99571.22
2023-03-15T12:44:18.667Z,99572.03
2023-03-15T12:45:20.522Z,99574.69
2023-03-15T12:46:41.256Z,99576.56
2023-03-15T12:47:51.931Z,99580.03
2023-03-15T12:49:11.305Z,99585.38
2023-03-15T12:50:44.345Z,99581.56
2023-03-15T12:52:00.466Z,99586.75
2023-03-15T12:53:05.378Z,99594.25
2023-03-15T12:54:14.159Z,99581.91
2023-03-15T12:55:18.344Z,99594.72
2023-03-15T12:56:50.489Z,99599.25
2023-03-15T12:57:56.648Z,99576.91
2023-03-15T12:59:05.013Z,99602.59
2023-03-15T13:00:15.413Z,99601.75
2023-03-15T13:01:18.566Z,99593.75
2023-03-15T13:02:43.391Z,99600.06
2023-03-15T13:03:45.983Z,99591.72
2023-03-15T13:04:49.944Z,99610.75
2023-03-15T13:06:08.769Z,99610.75
2023-03-15T13:07:25.868Z,99609.75
2023-03-15T13:08:52.582Z,99612.41
2023-03-15T13:10:07.552Z,99612.09
2023-03-15T13:11:33.674Z,99614.44
2023-03-15T13:12:41.738Z,99624.47
2023-03-15T13:14:01.374Z,99622.75
2023-03-15T13:15:08.216Z,99623.75
2023-03-15T13:16:22.470Z,99625.44
2023-03-15T13:17:47.444Z,99626.13
2023-03-15T13:19:05.398Z,99624.47